Pagina principale
METAR-TAF:

METAR-TAF

Aeroporti :

Aerodromo Hinterstoisser-Zeltweg

Zeltweg, Austria

latitudine: 47-12N, longitudine: 014-45E, altezza: 677 m

Osservazione

Il bollettino è stato emesso 59 minuti fa, alle 16:50 UTC
Vento 4 kt da nord, variando fra ovest/nord-ovest e est/sud-est
Temperature 12°C
Umidità 54%
Pressione 1017 hPa

METAR: LOXZ 311650Z 01004KT 300V110 30KM FEW045SC SCT060SC BKN075SC 12/03 Q1017

Ora: 19:49 (17:49 UTC)

Previsione

Il bollettino è stato emesso 6 ore e 34 minuti fa, alle 11:15 UTC
Previsione valida dal 31 alle 12 UTC al 31 alle 21 UTC
Vento 12 kt da nord/nord-ovest
Visibilità 10 km o più
Nubi sparse ad un'altezza di 5000 ft
Nuvoloso ad un'altezza di 6000 ft
pioggia debole

TAF: LOXZ 311115Z 3112/3121 34012KT 9999 -RA SCT050 BKN060

Osservazioni e previsioni meteorologiche di più di 4000 aeroporti (messaggi METAR e TAF).

Le stazioni disponibili sono rappresentate dai dischi gialli e rossi sulla carta.

Puntare il mouse per vedere il nome della stazione.

Clicca sopra per visualizzare le osservazioni e previsioni meteorologiche.

Per cambiare la mappa : fare clic sui pulsanti verdi con una croce nera per ingrandire, il pulsante verde con un trattino per diminuire, o sulla freccia verde per le mappe adiacenti.


METAR-TAF: